sensor_id;sensor_type;location;lat;lon;timestamp;pressure;altitude;pressure_sealevel;temperature;humidity
14689;BME280;7432;48.728;9.154;2023-07-29T00:01:34;145931.19;;;16.89;100.00
14689;BME280;7432;48.728;9.154;2023-07-29T00:04:01;145936.03;;;16.91;100.00
14689;BME280;7432;48.728;9.154;2023-07-29T00:06:28;145939.69;;;16.93;100.00
14689;BME280;7432;48.728;9.154;2023-07-29T00:08:55;145945.78;;;16.95;100.00
14689;BME280;7432;48.728;9.154;2023-07-29T00:11:21;145950.63;;;16.97;100.00
14689;BME280;7432;48.728;9.154;2023-07-29T00:13:47;145957.94;;;17.00;100.00
14689;BME280;7432;48.728;9.154;2023-07-29T00:16:15;145961.59;;;17.02;100.00
14689;BME280;7432;48.728;9.154;2023-07-29T00:18:42;145960.38;;;17.01;100.00
14689;BME280;7432;48.728;9.154;2023-07-29T00:21:08;145951.84;;;16.98;100.00
14689;BME280;7432;48.728;9.154;2023-07-29T00:23:36;145947.00;;;16.96;100.00
14689;BME280;7432;48.728;9.154;2023-07-29T00:26:03;145951.84;;;16.98;100.00
14689;BME280;7432;48.728;9.154;2023-07-29T00:28:29;145957.94;;;17.00;100.00
14689;BME280;7432;48.728;9.154;2023-07-29T00:30:55;145967.69;;;17.04;100.00
14689;BME280;7432;48.728;9.154;2023-07-29T00:33:22;145966.47;;;17.04;100.00
14689;BME280;7432;48.728;9.154;2023-07-29T00:35:48;145967.69;;;17.04;100.00
14689;BME280;7432;48.728;9.154;2023-07-29T00:38:14;145983.47;;;17.11;100.00
14689;BME280;7432;48.728;9.154;2023-07-29T00:40:42;145978.63;;;17.09;100.00
14689;BME280;7432;48.728;9.154;2023-07-29T00:43:09;145976.16;;;17.08;100.00
14689;BME280;7432;48.728;9.154;2023-07-29T00:45:35;145982.25;;;17.10;100.00
14689;BME280;7432;48.728;9.154;2023-07-29T00:48:02;145971.31;;;17.06;100.00
14689;BME280;7432;48.728;9.154;2023-07-29T00:50:30;145972.53;;;17.06;100.00
14689;BME280;7432;48.728;9.154;2023-07-29T00:52:58;145970.09;;;17.05;100.00
14689;BME280;7432;48.728;9.154;2023-07-29T00:55:24;145970.09;;;17.05;100.00
14689;BME280;7432;48.728;9.154;2023-07-29T00:57:52;145966.47;;;17.04;100.00
14689;BME280;7432;48.728;9.154;2023-07-29T01:00:20;145962.78;;;17.02;100.00
14689;BME280;7432;48.728;9.154;2023-07-29T01:02:47;145968.84;;;17.05;100.00
14689;BME280;7432;48.728;9.154;2023-07-29T01:05:14;145965.22;;;17.03;100.00
14689;BME280;7432;48.728;9.154;2023-07-29T01:07:47;145964.00;;;17.03;100.00
14689;BME280;7432;48.728;9.154;2023-07-29T01:10:21;145959.16;;;17.01;100.00
14689;BME280;7432;48.728;9.154;2023-07-29T01:13:01;145962.78;;;17.02;100.00
14689;BME280;7432;48.728;9.154;2023-07-29T01:15:34;145960.38;;;17.01;100.00
14689;BME280;7432;48.728;9.154;2023-07-29T01:18:05;145967.69;;;17.04;100.00
14689;BME280;7432;48.728;9.154;2023-07-29T01:20:34;145960.38;;;17.01;100.00
14689;BME280;7432;48.728;9.154;2023-07-29T01:23:03;145951.84;;;16.98;100.00
14689;BME280;7432;48.728;9.154;2023-07-29T01:25:31;145951.84;;;16.98;100.00
14689;BME280;7432;48.728;9.154;2023-07-29T01:27:57;145938.47;;;16.92;100.00
14689;BME280;7432;48.728;9.154;2023-07-29T01:30:29;145954.31;;;16.99;100.00
14689;BME280;7432;48.728;9.154;2023-07-29T01:33:00;145939.69;;;16.93;100.00
14689;BME280;7432;48.728;9.154;2023-07-29T01:35:33;145947.00;;;16.96;100.00
14689;BME280;7432;48.728;9.154;2023-07-29T01:38:05;145955.47;;;16.99;100.00
14689;BME280;7432;48.728;9.154;2023-07-29T01:40:34;145962.78;;;17.02;100.00
14689;BME280;7432;48.728;9.154;2023-07-29T01:43:01;145966.47;;;17.04;100.00
14689;BME280;7432;48.728;9.154;2023-07-29T01:45:28;145966.47;;;17.04;100.00
14689;BME280;7432;48.728;9.154;2023-07-29T01:47:56;145957.94;;;17.00;100.00
14689;BME280;7432;48.728;9.154;2023-07-29T01:50:23;145962.78;;;17.02;100.00
14689;BME280;7432;48.728;9.154;2023-07-29T01:52:49;145959.16;;;17.01;100.00
14689;BME280;7432;48.728;9.154;2023-07-29T01:55:16;145960.38;;;17.01;100.00
14689;BME280;7432;48.728;9.154;2023-07-29T01:57:43;145950.63;;;16.97;100.00
14689;BME280;7432;48.728;9.154;2023-07-29T02:00:11;145966.47;;;17.04;100.00
14689;BME280;7432;48.728;9.154;2023-07-29T02:02:38;145965.22;;;17.03;100.00
14689;BME280;7432;48.728;9.154;2023-07-29T02:05:05;145961.59;;;17.02;100.00
14689;BME280;7432;48.728;9.154;2023-07-29T02:07:31;145970.09;;;17.05;100.00
14689;BME280;7432;48.728;9.154;2023-07-29T02:09:58;145960.38;;;17.01;100.00
14689;BME280;7432;48.728;9.154;2023-07-29T02:12:24;145948.22;;;16.96;100.00
14689;BME280;7432;48.728;9.154;2023-07-29T02:14:52;145944.56;;;16.95;100.00
14689;BME280;7432;48.728;9.154;2023-07-29T02:17:18;145944.56;;;16.95;100.00
14689;BME280;7432;48.728;9.154;2023-07-29T02:19:45;145926.31;;;16.87;100.00
14689;BME280;7432;48.728;9.154;2023-07-29T02:22:13;145928.78;;;16.88;100.00
14689;BME280;7432;48.728;9.154;2023-07-29T02:24:40;145911.72;;;16.81;100.00
14689;BME280;7432;48.728;9.154;2023-07-29T02:27:07;145911.72;;;16.81;100.00
14689;BME280;7432;48.728;9.154;2023-07-29T02:29:33;145908.09;;;16.80;100.00
14689;BME280;7432;48.728;9.154;2023-07-29T02:32:01;145906.88;;;16.79;100.00
14689;BME280;7432;48.728;9.154;2023-07-29T02:34:27;145909.31;;;16.80;100.00
14689;BME280;7432;48.728;9.154;2023-07-29T02:36:53;145905.66;;;16.79;100.00
14689;BME280;7432;48.728;9.154;2023-07-29T02:39:20;145909.31;;;16.80;100.00
14689;BME280;7432;48.728;9.154;2023-07-29T02:41:47;145912.94;;;16.82;100.00
14689;BME280;7432;48.728;9.154;2023-07-29T02:44:13;145917.78;;;16.84;100.00
14689;BME280;7432;48.728;9.154;2023-07-29T02:46:39;145929.94;;;16.89;100.00
14689;BME280;7432;48.728;9.154;2023-07-29T02:49:07;145927.53;;;16.88;100.00
14689;BME280;7432;48.728;9.154;2023-07-29T02:51:34;145931.19;;;16.89;100.00
14689;BME280;7432;48.728;9.154;2023-07-29T02:54:00;145937.25;;;16.92;100.00
14689;BME280;7432;48.728;9.154;2023-07-29T02:56:26;145938.47;;;16.92;100.00
14689;BME280;7432;48.728;9.154;2023-07-29T02:58:53;145934.84;;;16.91;100.00
14689;BME280;7432;48.728;9.154;2023-07-29T03:01:19;145936.03;;;16.91;100.00
14689;BME280;7432;48.728;9.154;2023-07-29T03:03:46;145943.31;;;16.94;100.00
14689;BME280;7432;48.728;9.154;2023-07-29T03:06:14;145949.41;;;16.97;100.00
14689;BME280;7432;48.728;9.154;2023-07-29T03:08:41;145943.31;;;16.94;100.00
14689;BME280;7432;48.728;9.154;2023-07-29T03:11:09;145951.84;;;16.98;100.00
14689;BME280;7432;48.728;9.154;2023-07-29T03:13:35;145944.56;;;16.95;100.00
14689;BME280;7432;48.728;9.154;2023-07-29T03:16:05;145948.22;;;16.96;100.00
14689;BME280;7432;48.728;9.154;2023-07-29T03:18:32;145942.16;;;16.94;100.00
14689;BME280;7432;48.728;9.154;2023-07-29T03:20:58;145931.19;;;16.89;100.00
14689;BME280;7432;48.728;9.154;2023-07-29T03:23:27;145927.53;;;16.88;100.00
14689;BME280;7432;48.728;9.154;2023-07-29T03:25:54;145923.88;;;16.86;100.00
14689;BME280;7432;48.728;9.154;2023-07-29T03:28:21;145929.94;;;16.89;100.00
14689;BME280;7432;48.728;9.154;2023-07-29T03:30:48;145932.41;;;16.90;100.00
14689;BME280;7432;48.728;9.154;2023-07-29T03:33:14;145934.84;;;16.91;100.00
14689;BME280;7432;48.728;9.154;2023-07-29T03:35:40;145929.94;;;16.89;100.00
14689;BME280;7432;48.728;9.154;2023-07-29T03:38:09;145937.25;;;16.92;100.00
14689;BME280;7432;48.728;9.154;2023-07-29T03:40:37;145943.31;;;16.94;100.00
14689;BME280;7432;48.728;9.154;2023-07-29T03:43:04;145956.69;;;17.00;100.00
14689;BME280;7432;48.728;9.154;2023-07-29T03:45:30;145948.22;;;16.96;100.00
14689;BME280;7432;48.728;9.154;2023-07-29T03:47:57;145939.69;;;16.93;100.00
14689;BME280;7432;48.728;9.154;2023-07-29T03:50:23;145938.47;;;16.92;100.00
14689;BME280;7432;48.728;9.154;2023-07-29T03:52:50;145947.00;;;16.96;100.00
14689;BME280;7432;48.728;9.154;2023-07-29T03:55:16;145937.25;;;16.92;100.00
14689;BME280;7432;48.728;9.154;2023-07-29T03:57:44;145949.41;;;16.97;100.00
14689;BME280;7432;48.728;9.154;2023-07-29T04:00:11;145949.41;;;16.97;100.00
14689;BME280;7432;48.728;9.154;2023-07-29T04:02:37;145953.06;;;16.98;100.00
14689;BME280;7432;48.728;9.154;2023-07-29T04:05:04;145957.94;;;17.00;100.00
14689;BME280;7432;48.728;9.154;2023-07-29T04:07:31;145961.59;;;17.02;100.00
14689;BME280;7432;48.728;9.154;2023-07-29T04:09:58;145951.84;;;16.98;100.00
14689;BME280;7432;48.728;9.154;2023-07-29T04:12:24;145957.94;;;17.00;100.00
14689;BME280;7432;48.728;9.154;2023-07-29T04:14:52;145960.38;;;17.01;100.00
14689;BME280;7432;48.728;9.154;2023-07-29T04:17:19;145950.63;;;16.97;100.00
14689;BME280;7432;48.728;9.154;2023-07-29T04:19:45;145950.63;;;16.97;100.00
14689;BME280;7432;48.728;9.154;2023-07-29T04:22:11;145951.84;;;16.98;100.00
14689;BME280;7432;48.728;9.154;2023-07-29T04:24:38;145956.69;;;17.00;100.00
14689;BME280;7432;48.728;9.154;2023-07-29T04:27:04;145964.00;;;17.03;100.00
14689;BME280;7432;48.728;9.154;2023-07-29T04:29:31;145968.84;;;17.05;100.00
14689;BME280;7432;48.728;9.154;2023-07-29T04:31:59;145966.47;;;17.04;100.00
14689;BME280;7432;48.728;9.154;2023-07-29T04:34:26;145950.63;;;16.97;100.00
14689;BME280;7432;48.728;9.154;2023-07-29T04:36:52;145953.06;;;16.98;100.00
14689;BME280;7432;48.728;9.154;2023-07-29T04:39:19;145944.56;;;16.95;100.00
14689;BME280;7432;48.728;9.154;2023-07-29T04:41:45;145936.03;;;16.91;100.00
14689;BME280;7432;48.728;9.154;2023-07-29T04:44:12;145944.56;;;16.95;100.00
14689;BME280;7432;48.728;9.154;2023-07-29T04:46:38;145937.25;;;16.92;100.00
14689;BME280;7432;48.728;9.154;2023-07-29T04:49:06;145929.94;;;16.89;100.00
14689;BME280;7432;48.728;9.154;2023-07-29T04:51:32;145928.78;;;16.88;100.00
14689;BME280;7432;48.728;9.154;2023-07-29T04:53:59;145921.47;;;16.85;100.00
14689;BME280;7432;48.728;9.154;2023-07-29T04:56:25;145908.09;;;16.80;100.00
14689;BME280;7432;48.728;9.154;2023-07-29T04:58:52;145911.72;;;16.81;100.00
14689;BME280;7432;48.728;9.154;2023-07-29T05:01:19;145911.72;;;16.81;100.00
14689;BME280;7432;48.728;9.154;2023-07-29T05:03:45;145916.56;;;16.83;100.00
14689;BME280;7432;48.728;9.154;2023-07-29T05:06:13;145909.31;;;16.80;100.00
14689;BME280;7432;48.728;9.154;2023-07-29T05:08:39;145908.09;;;16.80;100.00
14689;BME280;7432;48.728;9.154;2023-07-29T05:11:05;145909.31;;;16.80;100.00
14689;BME280;7432;48.728;9.154;2023-07-29T05:13:32;145916.56;;;16.83;100.00
14689;BME280;7432;48.728;9.154;2023-07-29T05:15:58;145928.78;;;16.88;100.00
14689;BME280;7432;48.728;9.154;2023-07-29T05:18:25;145933.63;;;16.90;100.00
14689;BME280;7432;48.728;9.154;2023-07-29T05:20:51;145954.31;;;16.99;100.00
14689;BME280;7432;48.728;9.154;2023-07-29T05:23:19;145965.22;;;17.03;100.00
14689;BME280;7432;48.728;9.154;2023-07-29T05:25:45;145979.84;;;17.09;100.00
14689;BME280;7432;48.728;9.154;2023-07-29T05:28:11;145970.09;;;17.05;100.00
14689;BME280;7432;48.728;9.154;2023-07-29T05:30:38;145982.25;;;17.10;100.00
14689;BME280;7432;48.728;9.154;2023-07-29T05:33:05;145989.53;;;17.13;100.00
14689;BME280;7432;48.728;9.154;2023-07-29T05:35:33;146004.16;;;17.19;100.00
14689;BME280;7432;48.728;9.154;2023-07-29T05:37:59;146022.38;;;17.27;100.00
14689;BME280;7432;48.728;9.154;2023-07-29T05:40:27;146045.50;;;17.37;100.00
14689;BME280;7432;48.728;9.154;2023-07-29T05:42:53;146061.31;;;17.43;100.00
14689;BME280;7432;48.728;9.154;2023-07-29T05:45:20;146094.19;;;17.57;100.00
14689;BME280;7432;48.728;9.154;2023-07-29T05:47:46;146150.19;;;17.80;100.00
14689;BME280;7432;48.728;9.154;2023-07-29T05:50:12;146206.16;;;18.03;100.00
14689;BME280;7432;48.728;9.154;2023-07-29T05:52:39;146251.22;;;18.22;100.00
14689;BME280;7432;48.728;9.154;2023-07-29T05:55:06;146267.03;;;18.28;100.00
14689;BME280;7432;48.728;9.154;2023-07-29T05:57:33;146243.91;;;18.19;100.00
14689;BME280;7432;48.728;9.154;2023-07-29T06:00:00;146235.38;;;18.15;100.00
14689;BME280;7432;48.728;9.154;2023-07-29T06:02:26;146237.84;;;18.16;100.00
14689;BME280;7432;48.728;9.154;2023-07-29T06:04:53;146256.09;;;18.24;100.00
14689;BME280;7432;48.728;9.154;2023-07-29T06:07:20;146281.63;;;18.34;100.00
14689;BME280;7432;48.728;9.154;2023-07-29T06:09:46;146321.88;;;18.51;100.00
14689;BME280;7432;48.728;9.154;2023-07-29T06:12:12;146370.59;;;18.71;100.00
14689;BME280;7432;48.728;9.154;2023-07-29T06:14:40;146433.88;;;18.98;100.00
14689;BME280;7432;48.728;9.154;2023-07-29T06:17:07;146510.59;;;19.29;100.00
14689;BME280;7432;48.728;9.154;2023-07-29T06:19:36;146709.28;;;20.11;100.00
14689;BME280;7432;48.728;9.154;2023-07-29T06:22:03;147105.75;;;21.75;96.04
14689;BME280;7432;48.728;9.154;2023-07-29T06:24:30;147373.22;;;22.86;87.18
14689;BME280;7432;48.728;9.154;2023-07-29T06:26:57;147371.97;;;22.85;85.78
14689;BME280;7432;48.728;9.154;2023-07-29T06:29:23;147303.53;;;22.57;84.52
14689;BME280;7432;48.728;9.154;2023-07-29T06:31:51;147186.34;;;22.09;86.27
14689;BME280;7432;48.728;9.154;2023-07-29T06:34:17;147081.34;;;21.65;88.59
14689;BME280;7432;48.728;9.154;2023-07-29T06:36:44;146980.06;;;21.23;91.00
14689;BME280;7432;48.728;9.154;2023-07-29T06:39:10;146889.78;;;20.86;92.78
14689;BME280;7432;48.728;9.154;2023-07-29T06:41:36;146809.31;;;20.53;94.55
14689;BME280;7432;48.728;9.154;2023-07-29T06:44:03;146738.56;;;20.24;96.68
14689;BME280;7432;48.728;9.154;2023-07-29T06:46:30;146677.59;;;19.98;97.50
14689;BME280;7432;48.728;9.154;2023-07-29T06:48:57;146628.84;;;19.78;98.93
14689;BME280;7432;48.728;9.154;2023-07-29T06:51:24;146569.13;;;19.53;100.00
14689;BME280;7432;48.728;9.154;2023-07-29T06:53:50;146526.47;;;19.36;100.00
14689;BME280;7432;48.728;9.154;2023-07-29T06:56:17;146494.81;;;19.23;100.00
14689;BME280;7432;48.728;9.154;2023-07-29T06:58:43;146427.81;;;18.95;100.00
14689;BME280;7432;48.728;9.154;2023-07-29T07:01:10;146379.06;;;18.75;100.00
14689;BME280;7432;48.728;9.154;2023-07-29T07:03:36;146323.09;;;18.52;100.00
14689;BME280;7432;48.728;9.154;2023-07-29T07:06:04;146293.81;;;18.40;100.00
14689;BME280;7432;48.728;9.154;2023-07-29T07:08:31;146256.09;;;18.24;100.00
14689;BME280;7432;48.728;9.154;2023-07-29T07:10:57;146231.75;;;18.14;100.00
14689;BME280;7432;48.728;9.154;2023-07-29T07:13:23;146235.38;;;18.15;100.00
14689;BME280;7432;48.728;9.154;2023-07-29T07:15:50;146193.97;;;17.98;100.00
14689;BME280;7432;48.728;9.154;2023-07-29T07:18:16;146192.81;;;17.98;100.00
14689;BME280;7432;48.728;9.154;2023-07-29T07:20:42;146192.81;;;17.98;100.00
14689;BME280;7432;48.728;9.154;2023-07-29T07:23:10;146178.19;;;17.92;100.00
14689;BME280;7432;48.728;9.154;2023-07-29T07:25:38;146170.88;;;17.89;100.00
14689;BME280;7432;48.728;9.154;2023-07-29T07:28:04;146174.50;;;17.90;100.00
14689;BME280;7432;48.728;9.154;2023-07-29T07:30:31;146175.75;;;17.91;100.00
14689;BME280;7432;48.728;9.154;2023-07-29T07:32:57;146176.97;;;17.91;100.00
14689;BME280;7432;48.728;9.154;2023-07-29T07:35:23;146189.13;;;17.96;100.00
14689;BME280;7432;48.728;9.154;2023-07-29T07:37:50;146207.38;;;18.04;100.00
14689;BME280;7432;48.728;9.154;2023-07-29T07:40:18;146248.78;;;18.21;100.00
14689;BME280;7432;48.728;9.154;2023-07-29T07:42:44;146260.94;;;18.26;100.00
14689;BME280;7432;48.728;9.154;2023-07-29T07:45:11;146279.19;;;18.33;100.00
14689;BME280;7432;48.728;9.154;2023-07-29T07:47:37;146278.00;;;18.33;100.00
14689;BME280;7432;48.728;9.154;2023-07-29T07:50:04;146278.00;;;18.33;100.00
14689;BME280;7432;48.728;9.154;2023-07-29T07:52:31;146282.88;;;18.35;100.00
14689;BME280;7432;48.728;9.154;2023-07-29T07:54:57;146315.78;;;18.49;100.00
14689;BME280;7432;48.728;9.154;2023-07-29T07:57:25;146336.47;;;18.57;100.00
14689;BME280;7432;48.728;9.154;2023-07-29T07:59:51;146344.97;;;18.61;100.00
14689;BME280;7432;48.728;9.154;2023-07-29T08:02:17;146383.97;;;18.77;100.00
14689;BME280;7432;48.728;9.154;2023-07-29T08:04:44;146404.66;;;18.85;100.00
14689;BME280;7432;48.728;9.154;2023-07-29T08:07:10;146405.88;;;18.86;100.00
14689;BME280;7432;48.728;9.154;2023-07-29T08:09:37;146438.75;;;19.00;100.00
14689;BME280;7432;48.728;9.154;2023-07-29T08:12:03;146472.84;;;19.14;100.00
14689;BME280;7432;48.728;9.154;2023-07-29T08:14:31;146530.09;;;19.37;100.00
14689;BME280;7432;48.728;9.154;2023-07-29T08:16:58;146580.13;;;19.58;100.00
14689;BME280;7432;48.728;9.154;2023-07-29T08:19:24;146626.44;;;19.77;100.00
14689;BME280;7432;48.728;9.154;2023-07-29T08:21:51;146652.03;;;19.88;100.00
14689;BME280;7432;48.728;9.154;2023-07-29T08:24:17;146681.25;;;20.00;100.00
14689;BME280;7432;48.728;9.154;2023-07-29T08:26:43;146744.69;;;20.26;99.97
14689;BME280;7432;48.728;9.154;2023-07-29T08:29:10;146816.63;;;20.56;98.81
14689;BME280;7432;48.728;9.154;2023-07-29T08:31:38;146875.16;;;20.80;97.73
14689;BME280;7432;48.728;9.154;2023-07-29T08:34:05;146931.28;;;21.03;96.29
14689;BME280;7432;48.728;9.154;2023-07-29T08:36:31;147022.81;;;21.41;95.04
14689;BME280;7432;48.728;9.154;2023-07-29T08:38:58;147141.22;;;21.90;92.39
14689;BME280;7432;48.728;9.154;2023-07-29T08:41:25;147210.75;;;22.19;90.65
14689;BME280;7432;48.728;9.154;2023-07-29T08:43:58;147297.44;;;22.55;89.33
14689;BME280;7432;48.728;9.154;2023-07-29T08:46:26;147430.59;;;23.10;87.09
14689;BME280;7432;48.728;9.154;2023-07-29T08:48:55;147812.00;;;24.67;80.28
14689;BME280;7432;48.728;9.154;2023-07-29T08:51:21;148023.69;;;25.54;76.90
14689;BME280;7432;48.728;9.154;2023-07-29T08:53:49;148142.38;;;26.03;73.19
14689;BME280;7432;48.728;9.154;2023-07-29T08:56:16;148179.13;;;26.18;71.36
14689;BME280;7432;48.728;9.154;2023-07-29T08:58:43;148694.94;;;28.31;64.32
14689;BME280;7432;48.728;9.154;2023-07-29T09:01:10;149204.06;;;30.40;56.59
14689;BME280;7432;48.728;9.154;2023-07-29T09:03:36;149174.53;;;30.28;56.94
14689;BME280;7432;48.728;9.154;2023-07-29T09:06:05;148837.16;;;28.89;59.16
14689;BME280;7432;48.728;9.154;2023-07-29T09:08:32;148389.75;;;27.05;64.54
14689;BME280;7432;48.728;9.154;2023-07-29T09:10:59;148146.03;;;26.05;68.49
14689;BME280;7432;48.728;9.154;2023-07-29T09:13:26;147973.47;;;25.33;72.08
14689;BME280;7432;48.728;9.154;2023-07-29T09:15:54;147906.19;;;25.06;73.60
14689;BME280;7432;48.728;9.154;2023-07-29T09:18:21;147902.53;;;25.04;74.21
14689;BME280;7432;48.728;9.154;2023-07-29T09:20:48;147969.81;;;25.32;74.92
14689;BME280;7432;48.728;9.154;2023-07-29T09:23:16;148524.53;;;27.60;68.29
14689;BME280;7432;48.728;9.154;2023-07-29T09:25:46;148921.78;;;29.24;59.68
14689;BME280;7432;48.728;9.154;2023-07-29T09:28:13;149153.66;;;30.19;56.70
14689;BME280;7432;48.728;9.154;2023-07-29T09:30:41;149781.41;;;32.77;51.85
14689;BME280;7432;48.728;9.154;2023-07-29T09:33:09;149658.50;;;32.27;51.22
14689;BME280;7432;48.728;9.154;2023-07-29T09:35:36;149110.75;;;30.02;56.66
14689;BME280;7432;48.728;9.154;2023-07-29T09:38:04;148829.78;;;28.86;58.83
14689;BME280;7432;48.728;9.154;2023-07-29T09:40:35;148449.75;;;27.30;62.12
14689;BME280;7432;48.728;9.154;2023-07-29T09:43:03;148244.00;;;26.45;66.60
14689;BME280;7432;48.728;9.154;2023-07-29T09:45:32;148294.22;;;26.66;65.14
14689;BME280;7432;48.728;9.154;2023-07-29T09:47:59;148680.22;;;28.25;63.21
14689;BME280;7432;48.728;9.154;2023-07-29T09:50:26;148974.53;;;29.46;59.40
14689;BME280;7432;48.728;9.154;2023-07-29T09:52:55;148913.19;;;29.20;58.00
14689;BME280;7432;48.728;9.154;2023-07-29T09:55:24;148665.50;;;28.18;60.63
14689;BME280;7432;48.728;9.154;2023-07-29T09:57:56;148800.38;;;28.74;59.08
14689;BME280;7432;48.728;9.154;2023-07-29T10:00:23;149371.03;;;31.08;54.63
14689;BME280;7432;48.728;9.154;2023-07-29T10:02:50;149852.72;;;33.06;49.94
14689;BME280;7432;48.728;9.154;2023-07-29T10:05:17;150282.03;;;34.82;45.63
14689;BME280;7432;48.728;9.154;2023-07-29T10:07:44;150274.66;;;34.79;42.98
14689;BME280;7432;48.728;9.154;2023-07-29T10:10:11;150043.34;;;33.84;45.25
14689;BME280;7432;48.728;9.154;2023-07-29T10:12:39;150215.56;;;34.55;45.29
14689;BME280;7432;48.728;9.154;2023-07-29T10:15:09;149927.72;;;33.37;45.76
14689;BME280;7432;48.728;9.154;2023-07-29T10:17:38;149885.91;;;33.20;46.28
14689;BME280;7432;48.728;9.154;2023-07-29T10:20:07;149948.63;;;33.46;43.86
14689;BME280;7432;48.728;9.154;2023-07-29T10:22:36;149758.09;;;32.67;47.87
14689;BME280;7432;48.728;9.154;2023-07-29T10:25:04;149695.34;;;32.42;45.69
14689;BME280;7432;48.728;9.154;2023-07-29T10:27:37;149554.03;;;31.84;46.56
14689;BME280;7432;48.728;9.154;2023-07-29T10:30:05;149515.97;;;31.68;43.67
14689;BME280;7432;48.728;9.154;2023-07-29T10:32:34;149615.50;;;32.09;45.00
14689;BME280;7432;48.728;9.154;2023-07-29T10:35:00;149893.28;;;33.23;43.01
14689;BME280;7432;48.728;9.154;2023-07-29T10:37:27;149917.91;;;33.33;40.56
14689;BME280;7432;48.728;9.154;2023-07-29T10:39:54;149438.56;;;31.36;44.29
14689;BME280;7432;48.728;9.154;2023-07-29T10:42:21;149464.41;;;31.47;46.37
14689;BME280;7432;48.728;9.154;2023-07-29T10:44:49;149420.13;;;31.29;46.59
14689;BME280;7432;48.728;9.154;2023-07-29T10:47:17;149329.22;;;30.91;45.79
14689;BME280;7432;48.728;9.154;2023-07-29T10:49:48;149235.94;;;30.53;46.74
14689;BME280;7432;48.728;9.154;2023-07-29T10:52:16;149294.84;;;30.77;46.83
14689;BME280;7432;48.728;9.154;2023-07-29T10:54:44;149404.19;;;31.22;44.63
14689;BME280;7432;48.728;9.154;2023-07-29T10:57:14;149334.19;;;30.93;45.68
14689;BME280;7432;48.728;9.154;2023-07-29T10:59:41;149215.06;;;30.44;46.14
14689;BME280;7432;48.728;9.154;2023-07-29T11:02:17;148936.50;;;29.30;51.40
14689;BME280;7432;48.728;9.154;2023-07-29T11:04:49;148865.34;;;29.01;46.93
14689;BME280;7432;48.728;9.154;2023-07-29T11:07:20;148986.81;;;29.51;47.70
14689;BME280;7432;48.728;9.154;2023-07-29T11:09:57;149138.97;;;30.13;45.84
14689;BME280;7432;48.728;9.154;2023-07-29T11:12:37;149066.59;;;29.83;48.42
14689;BME280;7432;48.728;9.154;2023-07-29T11:15:12;148833.50;;;28.88;52.00
14689;BME280;7432;48.728;9.154;2023-07-29T11:17:40;148773.41;;;28.63;50.89
14689;BME280;7432;48.728;9.154;2023-07-29T11:20:08;148954.91;;;29.37;51.17
14689;BME280;7432;48.728;9.154;2023-07-29T11:22:36;149086.22;;;29.91;50.57
14689;BME280;7432;48.728;9.154;2023-07-29T11:25:03;148962.25;;;29.41;48.46
14689;BME280;7432;48.728;9.154;2023-07-29T11:27:30;148831.00;;;28.87;50.80
14689;BME280;7432;48.728;9.154;2023-07-29T11:29:57;148759.88;;;28.57;50.68
14689;BME280;7432;48.728;9.154;2023-07-29T11:32:24;148621.34;;;28.00;52.19
14689;BME280;7432;48.728;9.154;2023-07-29T11:34:51;148578.44;;;27.83;51.40
14689;BME280;7432;48.728;9.154;2023-07-29T11:37:19;148618.88;;;27.99;50.80
14689;BME280;7432;48.728;9.154;2023-07-29T11:39:46;148561.31;;;27.76;54.21
14689;BME280;7432;48.728;9.154;2023-07-29T11:42:13;148482.88;;;27.43;51.71
14689;BME280;7432;48.728;9.154;2023-07-29T11:44:40;148508.63;;;27.54;50.40
14689;BME280;7432;48.728;9.154;2023-07-29T11:47:07;148497.59;;;27.49;50.92
14689;BME280;7432;48.728;9.154;2023-07-29T11:49:34;148571.09;;;27.80;50.94
14689;BME280;7432;48.728;9.154;2023-07-29T11:52:01;148800.38;;;28.74;48.63
14689;BME280;7432;48.728;9.154;2023-07-29T11:54:30;148810.16;;;28.78;47.60
14689;BME280;7432;48.728;9.154;2023-07-29T11:56:56;149062.91;;;29.82;43.23
14689;BME280;7432;48.728;9.154;2023-07-29T11:59:23;149032.19;;;29.69;43.21
14689;BME280;7432;48.728;9.154;2023-07-29T12:01:49;148964.72;;;29.42;41.22
14689;BME280;7432;48.728;9.154;2023-07-29T12:04:16;149130.38;;;30.10;42.04
14689;BME280;7432;48.728;9.154;2023-07-29T12:06:43;149231.06;;;30.51;44.88
14689;BME280;7432;48.728;9.154;2023-07-29T12:09:09;149329.22;;;30.91;43.99
14689;BME280;7432;48.728;9.154;2023-07-29T12:11:37;149386.97;;;31.15;43.27
14689;BME280;7432;48.728;9.154;2023-07-29T12:14:07;149286.28;;;30.74;42.24
14689;BME280;7432;48.728;9.154;2023-07-29T12:16:40;149217.56;;;30.45;43.92
14689;BME280;7432;48.728;9.154;2023-07-29T12:19:06;149339.13;;;30.95;43.79
14689;BME280;7432;48.728;9.154;2023-07-29T12:21:33;149356.28;;;31.02;43.08
14689;BME280;7432;48.728;9.154;2023-07-29T12:23:59;149258.06;;;30.62;41.72
14689;BME280;7432;48.728;9.154;2023-07-29T12:26:27;149210.19;;;30.42;41.91
14689;BME280;7432;48.728;9.154;2023-07-29T12:28:55;149120.53;;;30.06;42.52
14689;BME280;7432;48.728;9.154;2023-07-29T12:31:30;148884.97;;;29.09;43.24
14689;BME280;7432;48.728;9.154;2023-07-29T12:33:57;148772.19;;;28.62;43.33
14689;BME280;7432;48.728;9.154;2023-07-29T12:36:27;148751.28;;;28.54;43.51
14689;BME280;7432;48.728;9.154;2023-07-29T12:39:06;148758.66;;;28.57;44.12
14689;BME280;7432;48.728;9.154;2023-07-29T12:41:31;148698.59;;;28.32;44.42
14689;BME280;7432;48.728;9.154;2023-07-29T12:43:59;148672.84;;;28.21;45.75
14689;BME280;7432;48.728;9.154;2023-07-29T12:46:29;148621.34;;;28.00;46.56
14689;BME280;7432;48.728;9.154;2023-07-29T12:48:55;148579.69;;;27.83;47.06
14689;BME280;7432;48.728;9.154;2023-07-29T12:51:21;148534.34;;;27.64;47.03
14689;BME280;7432;48.728;9.154;2023-07-29T12:53:48;148528.22;;;27.62;47.21
14689;BME280;7432;48.728;9.154;2023-07-29T12:56:14;148475.56;;;27.40;47.36